NEODyS-2

Near Earth Objects - Dynamic Site
NEODyS ∴ Observatories ∴ Site 691 ∴ Obs & residuals
Contact »
691  ▹ 
OBSERVATIONS AND RESIDUALS

691-Steward Observatory, Kitt Peak-Spacewatch

Detections | Residuals | Detections & Residuals

[1-200] [201-400] [401-600] [601-800] [801-1000] [1001-1200] [1201-1400] [1401-1600] [1601-1800] [1801-2000] [2001-2200] [2201-2400] [2401-2600] [2601-2800] [2801-3000] [3001-3200] [3201-3400] [3401-3600] [3601-3800] [3801-4000] [4001-4200] [4201-4400] [4401-4600] [4601-4800] [4801-5000] [5001-5200] [5201-5400] [5401-5600] [5601-5800] [5801-6000] [6001-6200] [6201-6400] [6401-6600] [6601-6800] [6801-7000] [7001-7200] [7201-7400] [7401-7600] [7601-7800] [7801-8000] [8001-8200] [8201-8400] [8401-8600] [8601-8800] [8801-9000] [9001-9200] [9201-9400] [9401-9600] [9601-9800] [9801-10000] [10001-10200] [10201-10400] [10401-10600] [10601-10800] [10801-11000] [11001-11200] [11201-11400] [11401-11600] [11601-11800] [11801-12000] [12001-12200] [12201-12400] [12401-12600] [12601-12800] [12801-13000] [13001-13200] [13201-13400] [13401-13600] [13601-13800] [13801-14000] [14001-14200] [14201-14400] [14401-14600] [14601-14800] [14801-15000] [15001-15200] [15201-15400] [15401-15600] [15601-15800] [15801-16000] [16001-16200] [16201-16400] [16401-16600] [16601-16800] [16801-17000] [17001-17200] [17201-17400] [17401-17600] [17601-17800] [17801-18000] [18001-18200] [18201-18400] [18401-18600] [18601-18800] [18801-19000] [19001-19200] [19201-19400] [19401-19600] [19601-19800] [19801-20000] [20001-20200] [20201-20400] [20401-20600] [20601-20800] [20801-21000] [21001-21200] [21201-21400] [21401-21600] [21601-21800] [21801-22000] [22001-22200] [22201-22400] [22401-22600] [22601-22800] [22801-23000] [23001-23200] [23201-23400] [23401-23600] [23601-23800] [23801-24000] [24001-24200] [24201-24400] [24401-24600] [24601-24800] [24801-25000] [25001-25200] [25201-25400] [25401-25600] [25601-25800] [25801-26000] [26001-26200] [26201-26400] [26401-26600] [26601-26800] [26801-27000] [27001-27200] [27201-27400] [27401-27600] [27601-27800] [27801-28000] [28001-28200] [28201-28400] [28401-28600] [28601-28800] [28801-29000] [29001-29200] [29201-29400] [29401-29600] [29601-29800] [29801-30000] [30001-30200] [30201-30400] [30401-30600] [30601-30800] [30801-31000] [31001-31200] [31201-31400] [31401-31600] [31601-31800] [31801-32000] [32001-32200] [32201-32400] [32401-32600] [32601-32800] [32801-33000] [33001-33200] [33201-33400] [33401-33600] [33601-33800] [33801-34000] [34001-34200] [34201-34400] [34401-34600] [34601-34800] [34801-35000] [35001-35200] [35201-35400] [35401-35600] [35601-35800] [35801-36000] [36001-36200] [36201-36400] [36401-36600] [36601-36800] [36801-37000] [37001-37200] [37201-37400] [37401-37600] [37601-37800] [37801-38000] [38001-38200] [38201-38400] [38401-38600] [38601-38800] [38801-39000] [39001-39200] [39201-39400] [39401-39600] [39601-39800] [39801-40000] [40001-40200] [40201-40400] [40401-40600] [40601-40800] [40801-41000] [41001-41200] [41201-41400] [41401-41600] [41601-41800] [41801-42000] [42001-42200] [42201-42400] [42401-42600] [42601-42800] [42801-43000] [43001-43200] [43201-43400] [43401-43600] [43601-43800] [43801-44000] [44001-44200] [44201-44400] [44401-44600] [44601-44800] [44801-45000] [45001-45200] [45201-45400] [45401-45600] [45601-45800] [45801-46000] [46001-46200] [46201-46400] [46401-46600] [46601-46800] [46801-47000] [47001-47200] [47201-47400] [47401-47600] [47601-47800] [47801-48000] [48001-48200] [48201-48400] [48401-48600] [48601-48800] [48801-49000] [49001-49200] [49201-49400] [49401-49600] [49601-49800] [49801-50000] [50001-50200] [50201-50388]

Designation T Tech N Date Right Ascension Declination Apparent Magnitude Star Catalog Site code χ Used A Used M
yr-mo-day precision hr:min:sec precision rms F bias residual deg min sec precision rms F bias residual mag/col rms residual
2019WC6 O C K 2019-12-23.18001 1.000E-05 02:57:14.070 1.500E-01 0.500 F -0.267 0.025 +25° 05' 11.00" 1.000E-01 0.500 F 0.292 -0.219 20.5 R 0.70 0.17 o 691 0.45 Yes Yes
2019WC6 O C K 2019-12-23.18441 1.000E-05 02:57:14.280 1.500E-01 0.500 F -0.267 -0.115 +25° 05' 33.70" 1.000E-01 0.500 F 0.292 0.273 20.4 R 0.70 0.07 o 691 0.60 Yes Yes
2019WT4 O C K 2019-12-23.19119 1.000E-05 04:36:58.020 1.500E-01 0.500 F -0.210 0.095 -19° 32' 21.00" 1.000E-01 0.500 F 0.043 -0.002 20.9 R 0.70 0.23 o 691 0.20 Yes Yes
2019WT4 O C K 2019-12-23.19477 1.000E-05 04:36:58.140 1.500E-01 0.500 F -0.210 -0.271 -19° 32' 33.60" 1.000E-01 0.500 F 0.043 0.273 21.4 R 0.70 0.73 o 691 0.79 Yes Yes
2019WT4 O C K 2019-12-23.19835 1.000E-05 04:36:58.320 1.500E-01 0.500 F -0.210 0.222 -19° 32' 46.80" 1.000E-01 0.500 F 0.043 -0.066 21.8 R 0.70 1.13 o 691 0.48 Yes Yes
2019WU4 O C K 2019-12-23.21062 1.000E-05 04:10:24.270 1.500E-01 0.500 F -0.202 0.479 -05° 05' 35.40" 1.000E-01 0.500 F 0.148 -0.206 21.2 R 0.70 0.13 o 691 1.06 Yes Yes
2019WU4 O C K 2019-12-23.23168 1.000E-05 04:10:23.010 1.500E-01 0.500 F -0.202 0.155 -05° 06' 30.70" 1.000E-01 0.500 F 0.148 0.032 21.2 R 0.70 0.13 o 691 0.32 Yes Yes
2019WU4 O C K 2019-12-23.24303 1.000E-05 04:10:22.320 1.500E-01 0.500 F -0.202 -0.190 -05° 07' 00.10" 1.000E-01 0.500 F 0.148 0.539 21.1 R 0.70 0.03 o 691 1.18 Yes Yes
2019WV O C K 2019-12-23.25597 1.000E-05 04:37:03.720 1.500E-01 0.500 F -0.234 0.783 +11° 33' 12.90" 1.000E-01 0.500 F 0.208 0.076 21.6 R 0.70 0.15 o 691 1.59 Yes Yes
2019WV O C K 2019-12-23.26291 1.000E-05 04:37:03.320 1.500E-01 0.500 F -0.234 -0.169 +11° 33' 17.10" 1.000E-01 0.500 F 0.208 -0.067 22.0 R 0.70 0.55 o 691 0.37 Yes Yes
2019WV O C K 2019-12-23.26985 1.000E-05 04:37:03.000 1.500E-01 0.500 F -0.234 0.041 +11° 33' 21.40" 1.000E-01 0.500 F 0.208 -0.088 21.8 R 0.70 0.35 o 691 0.20 Yes Yes
2019WR4 O C K 2019-12-23.29033 1.000E-05 06:21:43.970 1.500E-01 0.500 F -0.109 -0.398 +18° 08' 42.80" 1.000E-01 0.500 F 0.140 0.006 19.1 R 0.70 0.07 o 691 0.84 Yes Yes
2019WR4 O C K 2019-12-23.29553 1.000E-05 06:21:47.840 1.500E-01 0.500 F -0.109 0.203 +18° 08' 46.60" 1.000E-01 0.500 F 0.140 0.026 19.9 R 0.70 0.88 o 691 0.43 Yes Yes
2019WR4 O C K 2019-12-23.29761 1.000E-05 06:21:49.390 1.500E-01 0.500 F -0.109 0.476 +18° 08' 48.10" 1.000E-01 0.500 F 0.140 0.033 19.4 R 0.70 0.38 o 691 1.01 Yes Yes
2019XU2 O C 2019-12-23.30123 1.000E-05 06:09:59.070 1.500E-01 0.500 F -0.107 0.151 +25° 38' 15.50" 1.000E-01 0.500 F 0.146 -0.103 19.3 R 0.70 0.95 o 691 0.37 Yes Yes
2019XU2 O C 2019-12-23.31239 1.000E-05 06:09:59.360 1.500E-01 0.500 F -0.089 -0.261 +25° 39' 23.00" 1.000E-01 0.500 F 0.103 0.269 18.8 R 0.70 0.44 o 691 0.77 Yes Yes
2019XU2 O C 2019-12-23.31362 1.000E-05 06:09:59.390 1.500E-01 0.500 F -0.089 -0.331 +25° 39' 30.10" 1.000E-01 0.500 F 0.103 -0.021 18.7 R 0.70 0.34 o 691 0.67 Yes Yes
2016LM8 O C K 2020-01-02.07039 1.000E-05 22:41:29.820 1.500E-01 0.500 F -0.062 0.228 -20° 30' 22.60" 1.000E-01 0.500 F -0.073 0.265 o 691 0.72 Yes No
2016LM8 O C K 2020-01-02.07982 1.000E-05 22:41:33.280 1.500E-01 0.500 F -0.062 -0.314 -20° 30' 02.20" 1.000E-01 0.500 F -0.073 -0.383 o 691 1.02 Yes No
2019VF6 O C K 2020-01-02.20279 1.000E-05 02:39:25.450 1.500E-01 0.500 F -0.254 -0.468 -01° 03' 38.30" 1.000E-01 0.500 F 0.213 0.277 18.8 R 0.70 -0.05 o 691 1.11 Yes Yes
2019VF6 O C K 2020-01-02.20993 1.000E-05 02:39:21.170 1.500E-01 0.500 F -0.254 -0.197 -01° 03' 18.40" 1.000E-01 0.500 F 0.213 0.302 18.8 R 0.70 -0.05 o 691 0.74 Yes Yes
2019VF6 O C K 2020-01-02.21698 1.000E-05 02:39:16.950 1.500E-01 0.500 F -0.254 0.130 -01° 02' 59.40" 1.000E-01 0.500 F 0.213 -0.331 18.4 R 0.70 -0.45 o 691 0.73 Yes Yes
2019YG1 O C K 2020-01-02.22335 1.000E-05 04:02:39.910 1.500E-01 0.500 F -0.283 0.012 -05° 34' 44.10" 1.000E-01 0.500 F 0.226 -0.015 20.3 R 0.70 -0.16 o 691 0.04 Yes Yes
2019YG1 O C K 2020-01-02.23436 1.000E-05 04:02:40.590 1.500E-01 0.500 F -0.283 0.900 -05° 36' 01.80" 1.000E-01 0.500 F 0.226 0.044 20.2 R 0.70 -0.26 o 691 1.90 Yes Yes
2019YD1 O C K 2020-01-02.27317 1.000E-05 05:20:36.370 1.500E-01 0.500 F -0.248 0.416 -03° 45' 30.50" 1.000E-01 0.500 F 0.064 -0.966 o 691 2.16 Yes No
2019YD1 O C K 2020-01-02.27819 1.000E-05 05:20:38.870 1.500E-01 0.500 F -0.248 0.213 -03° 45' 45.40" 1.000E-01 0.500 F 0.064 -0.245 o 691 0.67 Yes No
2019YD1 O C K 2020-01-02.28315 1.000E-05 05:20:41.330 1.500E-01 0.500 F -0.248 -0.147 -03° 46' 00.70" 1.000E-01 0.500 F 0.064 -0.131 20.0 R 0.70 0.46 o 691 0.40 Yes Yes
2001QC34 O C 2020-01-03.07531 1.000E-05 23:41:34.400 1.500E-01 0.500 F -0.214 -1.437 -01° 16' 52.60" 1.000E-01 0.500 F 0.306 -0.190 20.8 V 0.70 0.88 o 691 2.91 Yes Yes
2019UT9 O C K 2020-01-03.08066 1.000E-05 22:44:10.510 1.500E-01 0.500 F -0.078 -0.298 -03° 46' 05.70" 1.000E-01 0.500 F 0.281 -0.170 20.7 R 0.70 1.15 o 691 0.70 Yes Yes
2001QC34 O C 2020-01-03.08962 1.000E-05 23:41:36.450 1.500E-01 0.500 F -0.214 -0.336 -01° 17' 11.20" 1.000E-01 0.500 F 0.306 0.532 20.2 V 0.70 0.28 o 691 1.26 Yes Yes
2019UT9 O C K 2020-01-03.09315 1.000E-05 22:44:10.410 1.500E-01 0.500 F -0.078 -0.685 -03° 45' 03.20" 1.000E-01 0.500 F 0.281 -0.843 21.4 R 0.70 1.85 o 691 2.21 Yes Yes
2001QC34 O C 2020-01-03.10391 1.000E-05 23:41:38.420 1.500E-01 0.500 F -0.214 -0.535 -01° 17' 31.10" 1.000E-01 0.500 F 0.306 -0.071 20.3 V 0.70 0.38 o 691 1.08 Yes Yes
2019UT9 O C K 2020-01-03.10565 1.000E-05 22:44:10.400 1.500E-01 0.500 F -0.078 0.217 -03° 43' 59.10" 1.000E-01 0.500 F 0.281 0.015 20.8 R 0.70 1.25 o 691 0.44 Yes Yes
2019UO O C K 2020-01-03.11268 1.000E-05 23:01:41.470 1.500E-01 0.500 F -0.094 -0.359 -09° 08' 24.90" 1.000E-01 0.500 F 0.365 -0.119 18.9 R 0.70 1.12 o 691 0.81 Yes Yes
2019UO O C K 2020-01-03.12445 1.000E-05 23:01:38.570 1.500E-01 0.500 F -0.060 0.316 -09° 10' 42.50" 1.000E-01 0.500 F 0.390 -0.630 o 691 1.51 Yes No
2019UO O C K 2020-01-03.13622 1.000E-05 23:01:35.640 1.500E-01 0.500 F -0.060 0.085 -09° 12' 59.30" 1.000E-01 0.500 F 0.390 -0.132 18.1 R 0.70 0.32 o 691 0.33 Yes Yes
2019YG1 O C K 2020-01-03.15437 1.000E-05 04:04:30.430 1.500E-01 0.500 F -0.246 0.107 -07° 27' 03.40" 1.000E-01 0.500 F 0.090 -0.285 20.2 R 0.70 -0.24 o 691 0.63 Yes Yes
2019YG1 O C K 2020-01-03.18409 1.000E-05 04:04:32.360 1.500E-01 0.500 F -0.246 -0.561 -07° 30' 43.60" 1.000E-01 0.500 F 0.090 0.313 20.0 R 0.70 -0.44 o 691 1.32 Yes Yes
2019MS3 O C H 2020-01-03.25463 1.000E-05 07:40:53.750 1.500E-01 0.500 F 0.067 0.268 +04° 41' 12.30" 1.000E-01 0.500 F -0.058 0.021 19.2 R 0.70 -0.32 o 691 0.54 Yes Yes
2019YA1 O C K 2020-01-03.25605 1.000E-05 08:05:22.170 1.500E-01 0.500 F -0.133 -0.449 -03° 16' 39.80" 1.000E-01 0.500 F 0.056 0.160 19.7 R 0.70 -0.15 o 691 0.97 Yes Yes
2010AE30 O C 2020-01-03.26040 1.000E-05 07:24:34.820 1.500E-01 0.612 F 0.007 -0.454 +18° 23' 30.40" 1.000E-01 0.612 F 0.198 -0.289 19.8 V 0.70 0.33 o 691 0.88 Yes Yes
2019YW2 O C 2020-01-03.26040 1.000E-05 07:23:52.730 1.500E-01 0.500 F -0.100 -0.236 +18° 03' 59.80" 1.000E-01 0.500 F 0.140 -0.337 19.9 V 0.70 0.20 o 691 0.83 Yes Yes
2019MS3 O C H 2020-01-03.26221 1.000E-05 07:40:52.540 1.500E-01 0.500 F 0.067 0.074 +04° 41' 29.60" 1.000E-01 0.500 F -0.058 0.343 19.0 R 0.70 -0.52 o 691 0.71 Yes Yes
2019YA1 O C K 2020-01-03.26363 1.000E-05 08:05:25.380 1.500E-01 0.500 F -0.133 0.526 -03° 16' 35.40" 1.000E-01 0.500 F 0.056 0.023 19.7 R 0.70 -0.15 o 691 1.07 Yes Yes
2019YW2 O C 2020-01-03.26795 1.000E-05 07:23:51.850 1.500E-01 0.500 F -0.100 -0.219 +18° 03' 59.80" 1.000E-01 0.500 F 0.140 -0.023 19.9 V 0.70 0.20 o 691 0.44 Yes Yes
2010AE30 O C 2020-01-03.26795 1.000E-05 07:24:33.810 1.500E-01 0.612 F 0.007 -0.532 +18° 23' 00.90" 1.000E-01 0.612 F 0.198 -0.181 19.9 V 0.70 0.44 o 691 0.92 Yes Yes
2019MS3 O C H 2020-01-03.26976 1.000E-05 07:40:51.330 1.500E-01 0.500 F -0.002 -0.105 +04° 41' 46.40" 1.000E-01 0.500 F -0.050 0.231 19.4 R 0.70 -0.12 o 691 0.51 Yes Yes
2019YA1 O C K 2020-01-03.27118 1.000E-05 08:05:28.450 1.500E-01 0.500 F -0.133 -0.149 -03° 16' 30.80" 1.000E-01 0.500 F 0.056 0.086 19.2 R 0.70 -0.65 o 691 0.35 Yes Yes
2010AE30 O C 2020-01-03.27548 1.000E-05 07:24:32.840 1.500E-01 0.612 F 0.007 0.003 +18° 22' 31.70" 1.000E-01 0.612 F 0.198 0.225 19.3 V 0.70 -0.16 o 691 0.37 Yes Yes
2019YW2 O C 2020-01-03.27548 1.000E-05 07:23:50.970 1.500E-01 0.500 F -0.100 -0.177 +18° 03' 59.40" 1.000E-01 0.500 F 0.140 -0.060 20.0 V 0.70 0.30 o 691 0.37 Yes Yes
2020AP O C K 2020-01-03.27706 1.000E-05 08:10:08.380 1.500E-01 0.500 F -0.026 -0.159 +11° 44' 44.00" 1.000E-01 0.500 F 0.058 -0.045 21.3 R 0.70 0.51 o 691 0.36 Yes Yes
2020AP O C K 2020-01-03.28613 1.000E-05 08:10:04.010 1.500E-01 0.500 F -0.026 0.077 +11° 44' 24.90" 1.000E-01 0.500 F 0.058 0.258 20.4 R 0.70 -0.39 o 691 0.57 Yes Yes
2020AP O C K 2020-01-03.29519 1.000E-05 08:09:59.620 1.500E-01 0.500 F -0.026 -0.035 +11° 44' 05.40" 1.000E-01 0.500 F 0.058 0.157 21.2 R 0.70 0.41 o 691 0.34 Yes Yes
2010AE30 O C 2020-01-03.30431 1.000E-05 07:24:28.920 1.500E-01 0.612 F 0.007 -0.267 +18° 20' 37.10" 1.000E-01 0.612 F 0.198 -0.294 19.6 V 0.70 0.14 o 691 0.65 Yes Yes
2010AE30 O C 2020-01-03.31174 1.000E-05 07:24:27.910 1.500E-01 0.612 F 0.007 -0.208 +18° 20' 07.70" 1.000E-01 0.612 F 0.198 -0.103 19.7 V 0.70 0.24 o 691 0.38 Yes Yes
2010AE30 O C 2020-01-03.31793 1.000E-05 07:24:27.050 1.500E-01 0.612 F 0.007 -0.394 +18° 19' 42.70" 1.000E-01 0.612 F 0.198 -0.389 19.4 V 0.70 -0.05 o 691 0.91 Yes Yes
2019YP3 O C K 2020-01-03.36856 1.000E-05 09:05:57.190 1.500E-01 0.500 F 0.143 -0.614 -07° 33' 37.80" 1.000E-01 0.500 F -0.035 0.483 o 691 1.57 Yes No
2019YP3 O C K 2020-01-03.37661 1.000E-05 09:05:55.700 1.500E-01 0.500 F 0.143 -0.415 -07° 33' 35.60" 1.000E-01 0.500 F -0.035 0.324 o 691 1.06 Yes No
2019YP3 O C K 2020-01-03.38467 1.000E-05 09:05:54.190 1.500E-01 0.500 F 0.143 -0.461 -07° 33' 33.00" 1.000E-01 0.500 F -0.035 0.520 o 691 1.40 Yes No
2019YA2 O C K 2020-01-03.41421 1.000E-05 08:27:23.740 1.500E-01 0.500 F 0.102 -0.465 +24° 56' 50.50" 1.000E-01 0.500 F 0.290 0.133 21.0 R 0.70 -0.07 o 691 0.98 Yes Yes
2019YA2 O C K 2020-01-03.42282 1.000E-05 08:27:21.560 1.500E-01 0.500 F 0.102 0.330 +24° 57' 02.40" 1.000E-01 0.500 F 0.290 -0.198 21.5 R 0.70 0.43 o 691 0.78 Yes Yes
2019YA2 O C K 2020-01-03.43142 1.000E-05 08:27:19.320 1.500E-01 0.500 F 0.102 0.240 +24° 57' 14.60" 1.000E-01 0.500 F 0.290 -0.172 o 691 0.60 Yes No
2015RZ35 O C K 2020-01-03.49763 1.000E-05 13:51:09.160 1.500E-01 0.500 F 0.651 -0.544 -24° 36' 55.60" 1.000E-01 0.500 F 0.302 0.286 o 691 1.23 Yes No
2019XC1 O C K 2020-01-03.50419 1.000E-05 10:40:19.240 1.500E-01 0.500 F 0.280 0.416 -31° 36' 26.10" 1.000E-01 0.500 F 0.115 0.191 19.1 R 0.70 -0.64 o 691 0.94 Yes Yes
2019XC1 O C K 2020-01-03.52339 1.000E-05 10:40:20.850 1.500E-01 0.500 F 0.372 -0.159 -31° 38' 06.10" 1.000E-01 0.500 F 0.074 0.370 o 691 0.85 Yes No
2015RZ35 O C K 2020-01-03.52847 1.000E-05 13:51:12.030 1.500E-01 0.500 F 0.651 0.035 -24° 37' 16.90" 1.000E-01 0.500 F 0.302 1.152 20.4 R 0.70 -0.08 o 691 2.31 Yes Yes
2019WR4 O C K 2020-01-03.53842 1.000E-05 09:41:37.160 1.500E-01 0.500 F -0.013 0.399 +14° 38' 25.90" 1.000E-01 0.500 F 0.447 0.322 19.5 R 0.70 -0.23 o 691 1.05 Yes Yes
2014YW34 O C K 2020-01-03.54174 1.000E-05 09:12:02.600 1.500E-01 0.500 F 0.031 0.053 +29° 24' 25.80" 1.000E-01 0.500 F 0.356 -0.195 20.1 R 0.70 0.10 o 691 0.41 Yes Yes
2019WR4 O C K 2020-01-03.54431 1.000E-05 09:41:42.800 1.500E-01 0.500 F -0.013 0.179 +14° 38' 06.70" 1.000E-01 0.500 F 0.447 0.017 19.4 R 0.70 -0.33 o 691 0.37 Yes Yes
2014YW34 O C K 2020-01-03.54747 1.000E-05 09:12:01.000 1.500E-01 0.500 F 0.031 0.181 +29° 24' 23.00" 1.000E-01 0.500 F 0.356 0.168 20.1 R 0.70 0.10 o 691 0.50 Yes Yes
2019WR4 O C K 2020-01-03.55004 1.000E-05 09:41:48.320 1.500E-01 0.500 F -0.013 0.269 +14° 37' 48.20" 1.000E-01 0.500 F 0.447 -0.039 19.5 R 0.70 -0.24 o 691 0.56 Yes Yes
2014YW34 O C K 2020-01-03.55321 1.000E-05 09:11:59.380 1.500E-01 0.500 F 0.031 0.052 +29° 24' 19.70" 1.000E-01 0.500 F 0.356 0.049 20.2 R 0.70 0.20 o 691 0.14 Yes Yes
2019UB11 O C 2020-01-04.22444 1.000E-05 04:34:38.110 1.500E-01 0.500 F -0.068 -0.276 +15° 38' 42.10" 1.000E-01 0.500 F 0.164 -0.320 19.3 V 0.70 0.62 o 691 0.85 Yes Yes
2019UB11 O C 2020-01-04.23408 1.000E-05 04:34:41.500 1.500E-01 0.500 F -0.068 -0.195 +15° 38' 36.20" 1.000E-01 0.500 F 0.164 -0.215 19.1 V 0.70 0.41 o 691 0.58 Yes Yes
2019UB11 O C 2020-01-04.24370 1.000E-05 04:34:44.880 1.500E-01 0.500 F -0.068 -0.156 +15° 38' 30.20" 1.000E-01 0.500 F 0.164 -0.186 19.0 V 0.70 0.31 o 691 0.49 Yes Yes
2019YD1 O C K 2020-01-04.25043 1.000E-05 05:37:40.170 1.500E-01 0.500 F -0.121 -0.114 -05° 16' 13.40" 1.000E-01 0.500 F 0.033 -0.273 20.6 R 0.70 0.85 o 691 0.60 Yes Yes
2019YD1 O C K 2020-01-04.25960 1.000E-05 05:37:43.980 1.500E-01 0.500 F -0.121 -0.059 -05° 16' 35.10" 1.000E-01 0.500 F 0.033 0.145 20.7 R 0.70 0.95 o 691 0.32 Yes Yes
2019YD1 O C K 2020-01-04.26872 1.000E-05 05:37:47.740 1.500E-01 0.500 F -0.121 -0.399 -05° 16' 57.00" 1.000E-01 0.500 F 0.033 0.174 20.7 R 0.70 0.95 o 691 0.89 Yes Yes
2019YA1 O C K 2020-01-04.29771 1.000E-05 08:12:56.820 1.500E-01 0.500 F -0.025 0.263 -03° 05' 39.40" 1.000E-01 0.500 F 0.044 -0.079 19.6 R 0.70 -0.40 o 691 0.56 Yes Yes
2019YA1 O C K 2020-01-04.30819 1.000E-05 08:13:00.510 1.500E-01 0.500 F -0.025 0.522 -03° 05' 32.80" 1.000E-01 0.500 F 0.044 0.097 20.1 R 0.70 0.10 o 691 1.08 Yes Yes
2019YA1 O C K 2020-01-04.31864 1.000E-05 08:13:04.090 1.500E-01 0.500 F -0.025 -0.403 -03° 05' 26.10" 1.000E-01 0.500 F 0.044 0.359 20.1 R 0.70 0.10 o 691 1.10 Yes Yes
2019YP3 O C K 2020-01-04.34036 1.000E-05 09:03:54.180 1.500E-01 0.500 F 0.066 -0.285 -07° 28' 29.20" 1.000E-01 0.500 F 0.005 -0.144 21.9 R 0.70 0.40 o 691 0.64 Yes Yes
2019YP3 O C K 2020-01-04.37483 1.000E-05 09:03:48.590 1.500E-01 0.500 F 0.066 -0.044 -07° 28' 18.90" 1.000E-01 0.500 F 0.005 -0.052 o 691 0.14 Yes No
2019YP3 O C K 2020-01-04.40934 1.000E-05 09:03:42.910 1.500E-01 0.500 F 0.066 -0.643 -07° 28' 07.60" 1.000E-01 0.500 F 0.005 0.352 21.7 R 0.70 0.19 o 691 1.47 Yes Yes
2019YZ4 O C K 2020-01-04.45038 1.000E-05 08:14:27.170 1.500E-01 0.500 F -0.062 0.860 +28° 10' 24.60" 1.000E-01 0.500 F 0.185 0.403 o 691 2.02 Yes No
2019YZ4 O C K 2020-01-04.46535 1.000E-05 08:14:22.570 1.500E-01 0.500 F -0.062 0.694 +28° 10' 41.90" 1.000E-01 0.500 F 0.185 -0.497 22.5 R 0.70 0.91 o 691 1.82 Yes Yes
2019YA2 O C K 2020-01-04.47846 1.000E-05 08:23:05.690 1.500E-01 0.500 F 0.044 0.748 +25° 21' 16.90" 1.000E-01 0.500 F 0.235 0.858 o 691 2.31 Yes No
2014QS439 O C 2020-01-04.48773 1.000E-05 09:10:43.270 1.500E-01 0.500 F 0.031 -0.525 +29° 29' 38.80" 1.000E-01 0.500 F 0.356 -0.095 20.8 V 0.70 0.28 o 691 1.07 Yes Yes
2014YW34 O C H 2020-01-04.48773 1.000E-05 09:07:47.690 1.500E-01 0.500 F 0.058 -0.190 +29° 16' 39.30" 1.000E-01 0.500 F 0.422 -0.076 20.0 R 0.70 0.00 o 691 0.41 Yes Yes
2019YA2 O C K 2020-01-04.48910 1.000E-05 08:23:03.050 1.500E-01 0.500 F 0.044 0.402 +25° 21' 29.70" 1.000E-01 0.500 F 0.235 0.115 21.7 R 0.70 0.60 o 691 0.85 Yes Yes
2014QS439 O C 2020-01-04.49831 1.000E-05 09:10:43.100 1.500E-01 0.500 F 0.031 -0.234 +29° 29' 52.30" 1.000E-01 0.500 F 0.356 -0.297 20.6 V 0.70 0.08 o 691 0.76 Yes Yes
2014YW34 O C H 2020-01-04.49831 1.000E-05 09:07:44.710 1.500E-01 0.500 F 0.058 -0.434 +29° 16' 33.50" 1.000E-01 0.500 F 0.422 0.000 20.1 R 0.70 0.10 o 691 0.87 Yes Yes
2019YA2 O C K 2020-01-04.49969 1.000E-05 08:23:00.410 1.500E-01 0.500 F 0.044 -0.207 +25° 21' 43.00" 1.000E-01 0.500 F 0.235 -0.015 22.1 R 0.70 1.00 o 691 0.42 Yes Yes
2014QS439 O C 2020-01-04.50891 1.000E-05 09:10:42.890 1.500E-01 0.500 F 0.031 -0.483 +29° 30' 06.40" 1.000E-01 0.500 F 0.356 0.092 20.8 V 0.70 0.28 o 691 0.99 Yes Yes
2014YW34 O C H 2020-01-04.50891 1.000E-05 09:07:41.780 1.500E-01 0.500 F 0.058 -0.028 +29° 16' 27.40" 1.000E-01 0.500 F 0.422 -0.157 20.1 R 0.70 0.10 o 691 0.32 Yes Yes
2001QC34 O C 2020-01-05.12953 1.000E-05 23:46:48.500 1.500E-01 0.500 F -0.286 -0.349 -02° 04' 38.10" 1.000E-01 0.500 F 0.451 -0.134 20.2 V 0.70 0.26 o 691 0.75 Yes Yes
2001QC34 O C 2020-01-05.13203 1.000E-05 23:46:48.880 1.500E-01 0.500 F -0.286 0.033 -02° 04' 41.20" 1.000E-01 0.500 F 0.451 0.351 19.9 V 0.70 -0.04 o 691 0.71 Yes Yes
1998SS49 O C 2020-01-05.13378 1.000E-05 23:29:45.310 1.500E-01 0.500 F -0.275 -0.058 -06° 58' 56.90" 1.000E-01 0.500 F 0.359 0.246 19.9 V 0.70 0.35 o 691 0.51 Yes Yes
2001QC34 O C 2020-01-05.13902 1.000E-05 23:46:49.850 1.500E-01 0.500 F -0.286 -0.323 -02° 04' 51.50" 1.000E-01 0.500 F 0.451 0.076 20.0 V 0.70 0.06 o 691 0.67 Yes Yes
1998SS49 O C 2020-01-05.14202 1.000E-05 23:29:45.880 1.500E-01 0.500 F -0.275 -0.040 -06° 58' 51.00" 1.000E-01 0.500 F 0.359 -0.139 20.0 V 0.70 0.45 o 691 0.29 Yes Yes
1998SS49 O C 2020-01-05.15026 1.000E-05 23:29:46.430 1.500E-01 0.500 F -0.275 -0.328 -06° 58' 44.50" 1.000E-01 0.500 F 0.359 0.075 20.0 V 0.70 0.45 o 691 0.67 Yes Yes
2000CH59 O C H 2020-01-05.18052 1.000E-05 05:04:50.350 1.500E-01 0.500 F -0.129 0.095 -17° 42' 59.50" 1.000E-01 0.500 F 0.085 0.108 16.1 R 0.70 0.17 o 691 0.30 Yes Yes
2000CH59 O C H 2020-01-05.18634 1.000E-05 05:04:49.580 1.500E-01 0.500 F -0.129 0.183 -17° 42' 01.10" 1.000E-01 0.500 F 0.085 0.131 16.1 R 0.70 0.17 o 691 0.46 Yes Yes
2000CH59 O C H 2020-01-05.19208 1.000E-05 05:04:48.810 1.500E-01 0.500 F -0.129 0.140 -17° 41' 03.60" 1.000E-01 0.500 F 0.085 0.065 16.1 R 0.70 0.17 o 691 0.32 Yes Yes
2019YD1 O C 2020-01-05.19923 1.000E-05 05:46:17.170 1.500E-01 0.500 F -0.204 1.2E+03 -06° 29' 30.30" 1.000E-01 0.500 F 0.169 -2.3E+03 19.5 V 0.70 -0.75 o 691 5055.31 No Yes
2019YD1 O C 2020-01-05.20372 1.000E-05 05:46:16.090 1.500E-01 0.500 F -0.204 1.2E+03 -06° 29' 31.60" 1.000E-01 0.500 F 0.169 -2.2E+03 19.4 V 0.70 -0.85 o 691 5001.90 No Yes
2019YD1 O C 2020-01-05.20708 1.000E-05 05:46:15.250 1.500E-01 0.500 F -0.204 1.2E+03 -06° 29' 32.80" 1.000E-01 0.500 F 0.169 -2.2E+03 19.5 V 0.70 -0.75 o 691 4962.49 No Yes
2019YW2 O C 2020-01-05.26545 1.000E-05 07:21:21.680 1.500E-01 0.500 F -0.059 -0.002 +18° 01' 16.00" 1.000E-01 0.500 F 0.165 -0.275 20.4 V 0.70 0.46 o 691 0.55 Yes Yes
2019YW2 O C 2020-01-05.27407 1.000E-05 07:21:20.860 1.500E-01 0.500 F -0.059 -0.127 +18° 01' 15.90" 1.000E-01 0.500 F 0.165 -0.253 20.1 V 0.70 0.16 o 691 0.57 Yes Yes
2019YW2 O C 2020-01-05.27592 1.000E-05 07:21:20.650 1.500E-01 0.500 F -0.059 -0.631 +18° 01' 15.80" 1.000E-01 0.500 F 0.165 -0.319 20.1 V 0.70 0.16 o 691 1.42 Yes Yes
2019YA1 O C K 2020-01-05.28831 1.000E-05 08:19:18.510 1.500E-01 0.500 F -0.013 0.034 -02° 55' 11.70" 1.000E-01 0.500 F 0.040 -0.001 20.2 R 0.70 0.07 o 691 0.07 Yes Yes
2019YA1 O C K 2020-01-05.30488 1.000E-05 08:19:23.550 1.500E-01 0.500 F -0.013 -0.570 -02° 55' 00.90" 1.000E-01 0.500 F 0.040 0.684 19.6 R 0.70 -0.54 o 691 1.81 Yes Yes
2019YA1 O C K 2020-01-05.32146 1.000E-05 08:19:28.610 1.500E-01 0.500 F -0.013 -0.164 -02° 54' 51.20" 1.000E-01 0.500 F 0.040 0.189 20.1 R 0.70 -0.04 o 691 0.51 Yes Yes
2019TZ1 O C K 2020-01-05.33865 1.000E-05 08:03:56.450 1.500E-01 0.500 F 0.083 -0.125 +06° 48' 08.30" 1.000E-01 0.500 F 0.059 -0.105 20.7 R 0.70 -0.32 o 691 0.33 Yes Yes
2019TZ1 O C K 2020-01-05.35888 1.000E-05 08:03:55.670 1.500E-01 0.500 F 0.083 -0.104 +06° 48' 49.30" 1.000E-01 0.500 F 0.059 0.130 20.4 R 0.70 -0.62 o 691 0.34 Yes Yes
2019TZ1 O C K 2020-01-05.37911 1.000E-05 08:03:54.890 1.500E-01 0.500 F 0.083 -0.087 +06° 49' 29.70" 1.000E-01 0.500 F 0.059 -0.142 20.2 R 0.70 -0.82 o 691 0.34 Yes Yes
1996AE2 O C H 2020-01-05.40265 1.000E-05 10:13:37.600 1.500E-01 0.500 F 0.081 -0.505 -21° 45' 03.90" 1.000E-01 0.500 F 0.067 -0.032 o 691 1.02 Yes No
1996AE2 O C H 2020-01-05.41699 1.000E-05 10:13:38.210 1.500E-01 0.500 F 0.081 -0.165 -21° 42' 51.50" 1.000E-01 0.500 F 0.067 -0.013 18.3 R 0.70 -0.22 o 691 0.33 Yes Yes
1996AE2 O C H 2020-01-05.43131 1.000E-05 10:13:38.780 1.500E-01 0.500 F 0.081 -0.305 -21° 40' 38.80" 1.000E-01 0.500 F 0.067 0.239 18.4 R 0.70 -0.12 o 691 0.78 Yes Yes
2016LM8 O C K 2020-01-06.06770 1.000E-05 23:06:27.180 1.500E-01 0.500 F -0.170 -0.084 -17° 52' 33.90" 1.000E-01 0.500 F 0.295 0.173 19.9 R 0.70 -0.27 o 691 0.39 Yes Yes
2001QC34 O C K 2020-01-06.07797 1.000E-05 23:49:15.340 1.500E-01 0.500 F -0.388 0.593 -02° 27' 44.80" 1.000E-01 0.500 F 0.425 -0.407 19.2 R 0.70 -0.35 o 691 1.44 Yes Yes
2016LM8 O C K 2020-01-06.08292 1.000E-05 23:06:32.840 1.500E-01 0.500 F -0.170 0.083 -17° 51' 55.10" 1.000E-01 0.500 F 0.295 0.571 19.5 R 0.70 -0.67 o 691 1.16 Yes Yes
2001QC34 O C K 2020-01-06.09315 1.000E-05 23:49:17.430 1.500E-01 0.500 F -0.388 0.165 -02° 28' 07.10" 1.000E-01 0.500 F 0.425 -0.250 o 691 0.60 Yes No
2016LM8 O C K 2020-01-06.09808 1.000E-05 23:06:38.480 1.500E-01 0.500 F -0.170 0.232 -17° 51' 17.30" 1.000E-01 0.500 F 0.295 0.083 20.0 R 0.70 -0.17 o 691 0.52 Yes Yes
2001QC34 O C K 2020-01-06.10832 1.000E-05 23:49:19.560 1.500E-01 0.500 F -0.388 0.181 -02° 28' 29.00" 1.000E-01 0.500 F 0.425 0.289 20.4 R 0.70 0.85 o 691 0.69 Yes Yes
2019UT9 O C K 2020-01-06.11340 1.000E-05 22:43:48.250 1.500E-01 0.500 F -0.075 0.021 +00° 36' 05.70" 1.000E-01 0.500 F 0.320 0.023 20.8 R 0.70 1.24 o 691 0.06 Yes Yes
2019UT9 O C K 2020-01-06.12531 1.000E-05 22:43:48.010 1.500E-01 0.500 F -0.075 -0.330 +00° 37' 09.60" 1.000E-01 0.500 F 0.320 0.599 20.3 R 0.70 0.74 o 691 1.41 Yes Yes
2019UJ15 O C K 2020-01-06.13435 1.000E-05 01:33:51.730 1.500E-01 0.500 F -0.228 -0.069 -16° 50' 25.00" 1.000E-01 0.500 F 0.196 0.106 19.1 R 0.70 0.16 o 691 0.26 Yes Yes
2019YG1 O C K 2020-01-06.15584 1.000E-05 04:11:35.720 1.500E-01 0.500 F -0.169 -0.064 -14° 05' 00.50" 1.000E-01 0.500 F 0.036 0.110 20.6 R 0.70 0.20 o 691 0.26 Yes Yes
2019UJ15 O C K 2020-01-06.16503 1.000E-05 01:34:00.080 1.500E-01 0.500 F -0.228 0.247 -16° 53' 16.90" 1.000E-01 0.500 F 0.196 0.228 19.2 R 0.70 0.26 o 691 0.68 Yes Yes
2019YG1 O C K 2020-01-06.17112 1.000E-05 04:11:37.310 1.500E-01 0.500 F -0.169 -0.156 -14° 07' 10.70" 1.000E-01 0.500 F 0.036 0.672 20.7 R 0.70 0.30 o 691 1.43 Yes Yes
2019MS3 O C K 2020-01-06.18105 1.000E-05 07:33:53.220 1.500E-01 0.500 F -0.044 0.049 +06° 25' 29.10" 1.000E-01 0.500 F 0.034 0.309 20.3 R 0.70 0.70 o 691 0.63 Yes Yes
2019YW2 O C K 2020-01-06.18802 1.000E-05 07:20:25.690 1.500E-01 0.500 F -0.059 -0.055 +18° 00' 22.90" 1.000E-01 0.500 F 0.165 -0.108 20.0 R 0.70 0.36 o 691 0.24 Yes Yes
2019MS3 O C K 2020-01-06.19216 1.000E-05 07:33:51.660 1.500E-01 0.500 F -0.044 0.155 +06° 25' 51.00" 1.000E-01 0.500 F 0.034 -0.587 20.2 R 0.70 0.60 o 691 1.22 Yes Yes
2019YW2 O C K 2020-01-06.19913 1.000E-05 07:20:24.820 1.500E-01 0.500 F -0.059 -0.024 +18° 00' 23.50" 1.000E-01 0.500 F 0.165 -0.031 19.9 R 0.70 0.26 o 691 0.08 Yes Yes
2019MS3 O C K 2020-01-06.20326 1.000E-05 07:33:50.070 1.500E-01 0.500 F -0.044 -0.149 +06° 26' 14.30" 1.000E-01 0.500 F 0.034 -0.049 20.3 R 0.70 0.70 o 691 0.32 Yes Yes
2019YD1 O C K 2020-01-06.21551 1.000E-05 05:51:57.810 1.500E-01 0.500 F -0.201 0.277 -06° 25' 28.30" 1.000E-01 0.500 F 0.079 -0.046 20.4 R 0.70 0.44 o 691 0.57 Yes Yes
2019YD1 O C K 2020-01-06.24091 1.000E-05 05:52:06.620 1.500E-01 0.500 F -0.201 -0.183 -06° 26' 15.30" 1.000E-01 0.500 F 0.079 0.132 20.5 R 0.70 0.54 o 691 0.46 Yes Yes
2019YA1 O C K 2020-01-06.25722 1.000E-05 08:24:49.700 1.500E-01 0.500 F -0.039 -0.675 -02° 44' 59.60" 1.000E-01 0.500 F 0.057 0.425 19.8 R 0.70 -0.46 o 691 1.62 Yes Yes
2019YD1 O C K 2020-01-06.26633 1.000E-05 05:52:15.430 1.500E-01 0.500 F -0.244 0.008 -06° 27' 02.20" 1.000E-01 0.500 F -0.020 0.027 19.0 R 0.70 -0.97 o 691 0.06 Yes Yes
2019YA1 O C K 2020-01-06.28268 1.000E-05 08:24:56.650 1.500E-01 0.500 F -0.039 -0.968 -02° 44' 44.60" 1.000E-01 0.500 F 0.057 0.059 20.0 R 0.70 -0.26 o 691 1.96 Yes Yes
2020AO1 O C K 2020-01-06.29294 1.000E-05 08:35:13.670 1.500E-01 0.500 F 0.050 -0.093 +28° 03' 08.00" 1.000E-01 0.500 F 0.231 0.182 18.7 R 0.70 0.08 o 691 0.41 Yes Yes
2019SC9 O C 2020-01-06.29667 1.000E-05 08:00:31.990 1.500E-01 0.612 F -0.062 -0.563 +29° 35' 59.50" 1.000E-01 0.612 F 0.226 0.009 20.4 V 0.70 -0.22 o 691 0.93 Yes Yes
2019SC9 O C K 2020-01-06.29667 1.000E-05 08:00:32.030 1.500E-01 0.612 F -0.062 -0.042 +29° 35' 59.40" 1.000E-01 0.612 F 0.226 -0.091 20.5 R 0.70 0.28 o 691 0.16 Yes Yes
2020AO1 O C K 2020-01-06.30055 1.000E-05 08:35:18.710 1.500E-01 0.500 F 0.050 0.185 +28° 02' 54.70" 1.000E-01 0.500 F 0.231 0.237 18.8 R 0.70 0.18 o 691 0.61 Yes Yes
2019SC9 O C K 2020-01-06.30428 1.000E-05 08:00:31.540 1.500E-01 0.612 F -0.062 -0.597 +29° 36' 01.80" 1.000E-01 0.612 F 0.226 0.090 20.3 R 0.70 0.08 o 691 0.99 Yes Yes
2019SC9 O C 2020-01-06.30653 1.000E-05 08:00:31.420 1.500E-01 0.612 F -0.062 -0.434 +29° 36' 02.20" 1.000E-01 0.612 F 0.226 -0.161 20.4 V 0.70 -0.22 o 691 0.76 Yes Yes
2020AO1 O C K 2020-01-06.30817 1.000E-05 08:35:23.760 1.500E-01 0.500 F 0.050 0.483 +28° 02' 40.70" 1.000E-01 0.500 F 0.231 -0.247 18.9 R 0.70 0.28 o 691 1.10 Yes Yes
2019SC9 O C K 2020-01-06.31189 1.000E-05 08:00:31.130 1.500E-01 0.612 F -0.062 -0.094 +29° 36' 03.90" 1.000E-01 0.612 F 0.226 -0.003 20.6 R 0.70 0.38 o 691 0.15 Yes Yes
2019SC9 O C 2020-01-06.31413 1.000E-05 08:00:30.980 1.500E-01 0.612 F -0.062 -0.326 +29° 36' 04.40" 1.000E-01 0.612 F 0.226 -0.144 20.6 V 0.70 -0.02 o 691 0.58 Yes Yes
2019WR4 O C K 2020-01-06.31764 1.000E-05 10:26:03.450 1.500E-01 0.500 F 0.104 -0.188 +12° 17' 00.70" 1.000E-01 0.500 F 0.125 -0.008 19.6 R 0.70 -0.52 o 691 0.38 Yes Yes
2015AJ44 O C K 2020-01-06.32616 1.000E-05 08:41:30.360 1.500E-01 0.500 F 0.050 -0.332 +14° 52' 39.10" 1.000E-01 0.500 F 0.084 -0.359 20.5 R 0.70 -0.13 o 691 0.99 Yes Yes
2019WR4 O C K 2020-01-06.33581 1.000E-05 10:26:17.850 1.500E-01 0.500 F 0.104 -0.225 +12° 16' 09.00" 1.000E-01 0.500 F 0.125 -0.128 19.6 R 0.70 -0.52 o 691 0.53 Yes Yes
2015AJ44 O C K 2020-01-06.34425 1.000E-05 08:41:24.930 1.500E-01 0.500 F 0.050 0.146 +14° 53' 16.20" 1.000E-01 0.500 F 0.084 -0.155 20.8 R 0.70 0.17 o 691 0.43 Yes Yes
2019WR4 O C K 2020-01-06.35399 1.000E-05 10:26:32.070 1.500E-01 0.500 F 0.104 -0.798 +12° 15' 16.90" 1.000E-01 0.500 F 0.125 -0.180 o 691 1.67 Yes No
2015AJ44 O C K 2020-01-06.36259 1.000E-05 08:41:19.320 1.500E-01 0.500 F 0.050 -0.787 +14° 53' 53.70" 1.000E-01 0.500 F 0.084 0.027 20.8 R 0.70 0.17 o 691 1.61 Yes Yes
2020AK O C K 2020-01-06.37533 1.000E-05 11:40:13.530 1.500E-01 0.500 F 0.121 -0.007 -13° 36' 32.20" 1.000E-01 0.500 F -0.004 0.251 20.8 R 0.70 0.13 o 691 0.50 Yes Yes
2020AK O C K 2020-01-06.38877 1.000E-05 11:40:15.910 1.500E-01 0.500 F 0.121 -0.327 -13° 36' 59.10" 1.000E-01 0.500 F -0.004 0.137 20.6 R 0.70 -0.07 o 691 0.71 Yes Yes
2020AK O C K 2020-01-06.40218 1.000E-05 11:40:18.310 1.500E-01 0.500 F 0.121 -0.238 -13° 37' 25.80" 1.000E-01 0.500 F -0.004 0.156 o 691 0.57 Yes No
2010AB78 O C K 2020-01-06.47904 1.000E-05 10:54:25.210 1.500E-01 0.500 F 0.224 -0.045 +04° 46' 15.30" 1.000E-01 0.500 F 0.057 -0.657 20.8 R 0.70 -0.45 o 691 1.32 Yes Yes
2010AB78 O C K 2020-01-06.48578 1.000E-05 10:54:25.160 1.500E-01 0.500 F 0.224 0.376 +04° 46' 09.70" 1.000E-01 0.500 F 0.057 0.460 21.2 R 0.70 -0.05 o 691 1.19 Yes Yes
2010AB78 O C K 2020-01-06.49251 1.000E-05 10:54:25.040 1.500E-01 0.500 F 0.224 -0.251 +04° 46' 03.40" 1.000E-01 0.500 F 0.057 0.868 21.7 R 0.70 0.45 o 691 1.81 Yes Yes
2019WD5 O C K 2020-01-06.50203 1.000E-05 13:50:41.260 1.500E-01 0.500 F 0.208 -0.029 +25° 17' 35.50" 1.000E-01 0.500 F 0.096 -0.028 19.1 R 0.70 0.74 o 691 0.08 Yes Yes
2019WD5 O C K 2020-01-06.50879 1.000E-05 13:50:53.930 1.500E-01 0.500 F 0.208 -0.353 +25° 15' 27.20" 1.000E-01 0.500 F 0.096 -0.200 18.8 R 0.70 0.44 o 691 0.84 Yes Yes
2020AS2 O C K 2020-01-06.53812 1.000E-05 11:20:20.110 1.500E-01 0.500 F 0.258 0.047 +07° 51' 41.60" 1.000E-01 0.500 F 0.207 0.106 20.4 R 0.70 0.47 o 691 0.24 Yes Yes
2020AS2 O C K 2020-01-06.54880 1.000E-05 11:20:18.870 1.500E-01 0.500 F 0.258 0.072 +07° 52' 26.10" 1.000E-01 0.500 F 0.207 -0.058 20.3 R 0.70 0.37 o 691 0.19 Yes Yes
2017ME O C K 2020-01-07.07402 1.000E-05 00:25:55.400 1.500E-01 0.500 F -0.308 0.138 -25° 23' 00.80" 1.000E-01 0.500 F 0.458 0.083 19.7 R 0.70 -0.32 o 691 0.33 Yes Yes
2016LM8 O C K 2020-01-07.08477 1.000E-05 23:12:47.870 1.500E-01 0.500 F -0.282 -0.918 -17° 09' 23.00" 1.000E-01 0.500 F 0.227 0.161 21.1 R 0.70 0.93 o 691 1.95 Yes Yes
2019UT9 O C K 2020-01-07.09356 1.000E-05 22:43:32.140 1.500E-01 0.500 F -0.095 0.158 +02° 03' 38.70" 1.000E-01 0.500 F 0.295 1.587 o 691 3.11 No No
2017ME O C K 2020-01-07.10358 1.000E-05 00:25:55.860 1.500E-01 0.500 F -0.308 0.441 -25° 21' 44.90" 1.000E-01 0.500 F 0.458 -0.360 o 691 1.14 Yes No
2016LM8 O C K 2020-01-07.11412 1.000E-05 23:12:58.860 1.500E-01 0.500 F -0.282 0.452 -17° 08' 07.20" 1.000E-01 0.500 F 0.227 -0.179 21.3 R 0.70 1.13 o 691 1.01 Yes Yes
2019UT9 O C K 2020-01-07.12285 1.000E-05 22:43:31.380 1.500E-01 0.500 F -0.095 -0.989 +02° 06' 15.30" 1.000E-01 0.500 F 0.295 0.157 o 691 2.04 Yes No
2017ME O C K 2020-01-07.13405 1.000E-05 00:25:56.300 1.500E-01 0.500 F -0.308 0.166 -25° 20' 25.70" 1.000E-01 0.500 F 0.458 0.036 20.3 R 0.70 0.28 o 691 0.34 Yes Yes
2019UJ15 O C K 2020-01-07.14563 1.000E-05 01:38:38.110 1.500E-01 0.500 F -0.140 -0.318 -18° 24' 12.00" 1.000E-01 0.500 F 0.130 0.442 o 691 1.11 Yes No
2019UJ15 O C K 2020-01-07.15341 1.000E-05 01:38:40.220 1.500E-01 0.500 F -0.140 -0.505 -18° 24' 55.00" 1.000E-01 0.500 F 0.130 0.052 o 691 1.03 Yes No
2019UJ15 O C K 2020-01-07.16117 1.000E-05 01:38:42.400 1.500E-01 0.500 F -0.140 0.352 -18° 25' 37.40" 1.000E-01 0.500 F 0.130 0.126 18.1 R 0.70 -0.87 o 691 0.76 Yes Yes
2013DU O C K 2020-01-07.17883 1.000E-05 06:32:57.750 1.500E-01 0.500 F -0.011 -0.161 -18° 22' 38.10" 1.000E-01 0.500 F -0.118 -0.050 o 691 0.34 Yes No
2019YD1 O C K 2020-01-07.18833 1.000E-05 05:58:13.120 1.500E-01 0.500 F -0.134 0.253 -06° 53' 19.50" 1.000E-01 0.500 F -0.042 -0.250 o 691 0.72 Yes No
2020AC1 O C K 2020-01-07.19855 1.000E-05 05:50:42.520 1.500E-01 0.500 F 0.025 -0.053 +01° 48' 25.30" 1.000E-01 0.500 F 0.144 -0.197 20.1 R 0.70 -0.16 o 691 0.45 Yes Yes
2013DU O C K 2020-01-07.20884 1.000E-05 06:33:11.060 1.500E-01 0.500 F -0.040 -0.445 -18° 23' 42.90" 1.000E-01 0.500 F -0.172 0.392 20.4 R 0.70 1.22 o 691 1.20 Yes Yes
2013DU O C K 2020-01-07.23884 1.000E-05 06:33:24.310 1.500E-01 0.500 F -0.040 -0.167 -18° 24' 47.20" 1.000E-01 0.500 F -0.172 0.166 o 691 0.48 Yes No
2019YD1 O C K 2020-01-07.24834 1.000E-05 05:58:32.240 1.500E-01 0.500 F -0.134 -1.125 -06° 54' 56.00" 1.000E-01 0.500 F -0.042 0.556 20.5 R 0.70 0.43 o 691 2.56 Yes Yes
2020AC1 O C K 2020-01-07.25855 1.000E-05 05:49:35.710 1.500E-01 0.500 F 0.025 0.545 +01° 42' 40.40" 1.000E-01 0.500 F 0.144 0.976 19.7 R 0.70 -0.60 o 691 2.45 Yes Yes
2019MS3 O C K 2020-01-07.27543 1.000E-05 07:31:26.150 1.500E-01 0.500 F -0.092 -0.374 +07° 02' 06.20" 1.000E-01 0.500 F 0.097 -0.234 19.2 R 0.70 -0.43 o 691 0.89 Yes Yes
2019YW2 O C K 2020-01-07.28110 1.000E-05 07:19:22.700 1.500E-01 0.500 F -0.089 -0.163 +17° 59' 50.50" 1.000E-01 0.500 F 0.151 0.114 20.2 R 0.70 0.44 o 691 0.40 Yes Yes
2019MS3 O C K 2020-01-07.28863 1.000E-05 07:31:24.340 1.500E-01 0.500 F -0.092 -0.172 +07° 02' 32.60" 1.000E-01 0.500 F 0.097 0.084 20.0 R 0.70 0.37 o 691 0.38 Yes Yes
2019YW2 O C K 2020-01-07.29430 1.000E-05 07:19:21.670 1.500E-01 0.500 F -0.089 -0.171 +17° 59' 50.20" 1.000E-01 0.500 F 0.151 -0.132 20.2 R 0.70 0.44 o 691 0.43 Yes Yes
2019MS3 O C K 2020-01-07.30183 1.000E-05 07:31:22.560 1.500E-01 0.500 F -0.092 0.494 +07° 02' 58.80" 1.000E-01 0.500 F 0.097 0.227 19.9 R 0.70 0.27 o 691 1.09 Yes Yes
2019YW2 O C K 2020-01-07.30750 1.000E-05 07:19:20.620 1.500E-01 0.500 F -0.089 -0.418 +17° 59' 50.10" 1.000E-01 0.500 F 0.151 -0.054 19.8 R 0.70 0.03 o 691 0.85 Yes Yes
2020AY2 O C K 2020-01-07.35023 1.000E-05 07:46:47.140 1.500E-01 0.500 F -0.002 0.090 +21° 47' 20.90" 1.000E-01 0.500 F 0.351 -0.357 20.7 R 0.70 0.40 o 691 0.74 Yes Yes
2020AY2 O C K 2020-01-07.37780 1.000E-05 07:46:48.800 1.500E-01 0.500 F -0.002 -0.050 +21° 46' 06.70" 1.000E-01 0.500 F 0.351 -0.151 o 691 0.32 Yes No
2020AO1 O C K 2020-01-07.43150 1.000E-05 08:50:47.100 1.500E-01 0.500 F 0.127 -0.383 +27° 16' 56.20" 1.000E-01 0.500 F 0.270 0.199 18.3 R 0.70 0.00 o 691 0.94 Yes Yes
2014YU43 O C 2020-01-07.43483 1.000E-05 08:30:13.990 1.500E-01 0.500 F 0.139 -0.635 +21° 18' 17.30" 1.000E-01 0.500 F 0.276 0.045 19.8 V 0.70 -0.05 o 691 1.28 Yes Yes
2020AO1 O C K 2020-01-07.43758 1.000E-05 08:50:52.660 1.500E-01 0.500 F 0.127 -0.361 +27° 16' 36.60" 1.000E-01 0.500 F 0.270 0.176 18.2 R 0.70 -0.10 o 691 0.88 Yes Yes
2014YU43 O C 2020-01-07.44238 1.000E-05 08:30:13.390 1.500E-01 0.500 F 0.139 -0.531 +21° 18' 37.30" 1.000E-01 0.500 F 0.276 0.148 19.7 V 0.70 -0.15 o 691 1.11 Yes Yes
2020AO1 O C K 2020-01-07.44364 1.000E-05 08:50:58.260 1.500E-01 0.500 F 0.127 0.243 +27° 16' 16.70" 1.000E-01 0.500 F 0.270 -0.079 18.3 R 0.70 0.01 o 691 0.56 Yes Yes
2014YU43 O C 2020-01-07.44845 1.000E-05 08:30:12.900 1.500E-01 0.500 F 0.139 -0.564 +21° 18' 53.10" 1.000E-01 0.500 F 0.276 -0.041 20.0 V 0.70 0.15 o 691 1.13 Yes Yes
2019XY2 O C H 2020-01-07.46754 1.000E-05 06:50:45.090 1.500E-01 0.500 F -0.042 -0.125 +08° 51' 28.70" 1.000E-01 0.500 F 0.192 -0.175 o 691 0.45 Yes No
2019XY2 O C H 2020-01-07.47855 1.000E-05 06:50:45.450 1.500E-01 0.500 F -0.042 -0.325 +08° 51' 19.00" 1.000E-01 0.500 F 0.192 -0.053 o 691 0.68 Yes No
2019YA5 O C K 2020-01-07.49247 1.000E-05 10:09:08.310 1.500E-01 0.500 F 0.133 0.384 +31° 02' 58.00" 1.000E-01 0.500 F 0.239 0.303 20.8 R 0.70 0.16 o 691 1.00 Yes Yes

[1-200] [201-400] [401-600] [601-800] [801-1000] [1001-1200] [1201-1400] [1401-1600] [1601-1800] [1801-2000] [2001-2200] [2201-2400] [2401-2600] [2601-2800] [2801-3000] [3001-3200] [3201-3400] [3401-3600] [3601-3800] [3801-4000] [4001-4200] [4201-4400] [4401-4600] [4601-4800] [4801-5000] [5001-5200] [5201-5400] [5401-5600] [5601-5800] [5801-6000] [6001-6200] [6201-6400] [6401-6600] [6601-6800] [6801-7000] [7001-7200] [7201-7400] [7401-7600] [7601-7800] [7801-8000] [8001-8200] [8201-8400] [8401-8600] [8601-8800] [8801-9000] [9001-9200] [9201-9400] [9401-9600] [9601-9800] [9801-10000] [10001-10200] [10201-10400] [10401-10600] [10601-10800] [10801-11000] [11001-11200] [11201-11400] [11401-11600] [11601-11800] [11801-12000] [12001-12200] [12201-12400] [12401-12600] [12601-12800] [12801-13000] [13001-13200] [13201-13400] [13401-13600] [13601-13800] [13801-14000] [14001-14200] [14201-14400] [14401-14600] [14601-14800] [14801-15000] [15001-15200] [15201-15400] [15401-15600] [15601-15800] [15801-16000] [16001-16200] [16201-16400] [16401-16600] [16601-16800] [16801-17000] [17001-17200] [17201-17400] [17401-17600] [17601-17800] [17801-18000] [18001-18200] [18201-18400] [18401-18600] [18601-18800] [18801-19000] [19001-19200] [19201-19400] [19401-19600] [19601-19800] [19801-20000] [20001-20200] [20201-20400] [20401-20600] [20601-20800] [20801-21000] [21001-21200] [21201-21400] [21401-21600] [21601-21800] [21801-22000] [22001-22200] [22201-22400] [22401-22600] [22601-22800] [22801-23000] [23001-23200] [23201-23400] [23401-23600] [23601-23800] [23801-24000] [24001-24200] [24201-24400] [24401-24600] [24601-24800] [24801-25000] [25001-25200] [25201-25400] [25401-25600] [25601-25800] [25801-26000] [26001-26200] [26201-26400] [26401-26600] [26601-26800] [26801-27000] [27001-27200] [27201-27400] [27401-27600] [27601-27800] [27801-28000] [28001-28200] [28201-28400] [28401-28600] [28601-28800] [28801-29000] [29001-29200] [29201-29400] [29401-29600] [29601-29800] [29801-30000] [30001-30200] [30201-30400] [30401-30600] [30601-30800] [30801-31000] [31001-31200] [31201-31400] [31401-31600] [31601-31800] [31801-32000] [32001-32200] [32201-32400] [32401-32600] [32601-32800] [32801-33000] [33001-33200] [33201-33400] [33401-33600] [33601-33800] [33801-34000] [34001-34200] [34201-34400] [34401-34600] [34601-34800] [34801-35000] [35001-35200] [35201-35400] [35401-35600] [35601-35800] [35801-36000] [36001-36200] [36201-36400] [36401-36600] [36601-36800] [36801-37000] [37001-37200] [37201-37400] [37401-37600] [37601-37800] [37801-38000] [38001-38200] [38201-38400] [38401-38600] [38601-38800] [38801-39000] [39001-39200] [39201-39400] [39401-39600] [39601-39800] [39801-40000] [40001-40200] [40201-40400] [40401-40600] [40601-40800] [40801-41000] [41001-41200] [41201-41400] [41401-41600] [41601-41800] [41801-42000] [42001-42200] [42201-42400] [42401-42600] [42601-42800] [42801-43000] [43001-43200] [43201-43400] [43401-43600] [43601-43800] [43801-44000] [44001-44200] [44201-44400] [44401-44600] [44601-44800] [44801-45000] [45001-45200] [45201-45400] [45401-45600] [45601-45800] [45801-46000] [46001-46200] [46201-46400] [46401-46600] [46601-46800] [46801-47000] [47001-47200] [47201-47400] [47401-47600] [47601-47800] [47801-48000] [48001-48200] [48201-48400] [48401-48600] [48601-48800] [48801-49000] [49001-49200] [49201-49400] [49401-49600] [49601-49800] [49801-50000] [50001-50200] [50201-50388]